sensor_id;sensor_type;location;lat;lon;timestamp;temperature;humidity
38606;DHT22;24365;48.446;8.850;2024-01-10T00:03:41;-5.90;57.40
38606;DHT22;24365;48.446;8.850;2024-01-10T00:08:42;-5.90;57.50
38606;DHT22;24365;48.446;8.850;2024-01-10T00:13:43;-5.90;57.60
38606;DHT22;24365;48.446;8.850;2024-01-10T00:18:44;-6.00;57.50
38606;DHT22;24365;48.446;8.850;2024-01-10T00:23:44;-6.00;57.90
38606;DHT22;24365;48.446;8.850;2024-01-10T00:28:45;-6.10;58.30
38606;DHT22;24365;48.446;8.850;2024-01-10T00:33:46;-6.10;58.50
38606;DHT22;24365;48.446;8.850;2024-01-10T00:38:48;-6.00;58.60
38606;DHT22;24365;48.446;8.850;2024-01-10T00:43:49;-6.00;58.50
38606;DHT22;24365;48.446;8.850;2024-01-10T00:48:49;-6.00;58.60
38606;DHT22;24365;48.446;8.850;2024-01-10T00:53:50;-5.90;58.70
38606;DHT22;24365;48.446;8.850;2024-01-10T00:58:51;-5.90;58.60
38606;DHT22;24365;48.446;8.850;2024-01-10T01:03:56;-5.90;58.40
38606;DHT22;24365;48.446;8.850;2024-01-10T01:08:57;-5.80;58.30
38606;DHT22;24365;48.446;8.850;2024-01-10T01:13:59;-5.80;58.70
38606;DHT22;24365;48.446;8.850;2024-01-10T01:19:00;-5.90;58.70
38606;DHT22;24365;48.446;8.850;2024-01-10T01:24:00;-6.10;59.40
38606;DHT22;24365;48.446;8.850;2024-01-10T01:29:01;-6.20;59.80
38606;DHT22;24365;48.446;8.850;2024-01-10T01:34:02;-6.10;60.50
38606;DHT22;24365;48.446;8.850;2024-01-10T01:39:03;-6.00;60.40
38606;DHT22;24365;48.446;8.850;2024-01-10T01:44:04;-5.90;60.30
38606;DHT22;24365;48.446;8.850;2024-01-10T01:49:05;-5.80;60.30
38606;DHT22;24365;48.446;8.850;2024-01-10T01:54:06;-5.80;60.10
38606;DHT22;24365;48.446;8.850;2024-01-10T01:59:11;-5.80;60.20
38606;DHT22;24365;48.446;8.850;2024-01-10T02:04:12;-5.90;60.70
38606;DHT22;24365;48.446;8.850;2024-01-10T02:09:13;-5.90;60.90
38606;DHT22;24365;48.446;8.850;2024-01-10T02:14:14;-5.80;60.80
38606;DHT22;24365;48.446;8.850;2024-01-10T02:19:22;-5.70;60.90
38606;DHT22;24365;48.446;8.850;2024-01-10T02:24:23;-5.70;60.50
38606;DHT22;24365;48.446;8.850;2024-01-10T02:29:24;-5.70;60.50
38606;DHT22;24365;48.446;8.850;2024-01-10T02:34:25;-5.50;60.20
38606;DHT22;24365;48.446;8.850;2024-01-10T02:39:25;-5.50;59.90
38606;DHT22;24365;48.446;8.850;2024-01-10T02:44:26;-5.60;59.70
38606;DHT22;24365;48.446;8.850;2024-01-10T02:49:28;-5.50;60.00
38606;DHT22;24365;48.446;8.850;2024-01-10T02:54:29;-5.40;59.90
38606;DHT22;24365;48.446;8.850;2024-01-10T02:59:30;-5.40;59.60
38606;DHT22;24365;48.446;8.850;2024-01-10T03:04:31;-5.50;60.00
38606;DHT22;24365;48.446;8.850;2024-01-10T03:09:31;-5.50;59.90
38606;DHT22;24365;48.446;8.850;2024-01-10T03:14:33;-5.50;60.10
38606;DHT22;24365;48.446;8.850;2024-01-10T03:19:34;-5.40;60.30
38606;DHT22;24365;48.446;8.850;2024-01-10T03:24:37;-5.30;60.10
38606;DHT22;24365;48.446;8.850;2024-01-10T03:29:38;-5.20;59.60
38606;DHT22;24365;48.446;8.850;2024-01-10T03:34:40;-5.20;59.40
38606;DHT22;24365;48.446;8.850;2024-01-10T03:39:41;-5.10;59.30
38606;DHT22;24365;48.446;8.850;2024-01-10T03:44:42;-5.10;59.20
38606;DHT22;24365;48.446;8.850;2024-01-10T03:49:43;-5.20;59.70
38606;DHT22;24365;48.446;8.850;2024-01-10T03:54:44;-5.20;59.80
38606;DHT22;24365;48.446;8.850;2024-01-10T03:59:46;-5.10;60.00
38606;DHT22;24365;48.446;8.850;2024-01-10T04:04:47;-5.10;60.40
38606;DHT22;24365;48.446;8.850;2024-01-10T04:09:48;-5.20;60.80
38606;DHT22;24365;48.446;8.850;2024-01-10T04:14:49;-5.20;61.10
38606;DHT22;24365;48.446;8.850;2024-01-10T04:19:50;-5.20;61.50
38606;DHT22;24365;48.446;8.850;2024-01-10T04:24:51;-5.20;61.70
38606;DHT22;24365;48.446;8.850;2024-01-10T04:29:52;-5.10;61.90
38606;DHT22;24365;48.446;8.850;2024-01-10T04:34:53;-5.10;61.50
38606;DHT22;24365;48.446;8.850;2024-01-10T04:39:53;-5.00;61.40
38606;DHT22;24365;48.446;8.850;2024-01-10T04:44:54;-5.00;61.70
38606;DHT22;24365;48.446;8.850;2024-01-10T04:49:55;-5.10;61.80
38606;DHT22;24365;48.446;8.850;2024-01-10T04:54:56;-5.10;61.40
38606;DHT22;24365;48.446;8.850;2024-01-10T04:59:57;-5.00;61.50
38606;DHT22;24365;48.446;8.850;2024-01-10T05:04:58;-5.00;61.00
38606;DHT22;24365;48.446;8.850;2024-01-10T05:09:59;-4.90;60.90
38606;DHT22;24365;48.446;8.850;2024-01-10T05:15:00;-4.90;60.60
38606;DHT22;24365;48.446;8.850;2024-01-10T05:20:00;-5.00;60.90
38606;DHT22;24365;48.446;8.850;2024-01-10T05:25:01;-4.80;60.40
38606;DHT22;24365;48.446;8.850;2024-01-10T05:30:03;-4.80;60.00
38606;DHT22;24365;48.446;8.850;2024-01-10T05:35:04;-4.80;59.70
38606;DHT22;24365;48.446;8.850;2024-01-10T05:40:05;-4.90;59.20
38606;DHT22;24365;48.446;8.850;2024-01-10T05:45:07;-4.80;58.90
38606;DHT22;24365;48.446;8.850;2024-01-10T05:50:08;-4.90;58.80
38606;DHT22;24365;48.446;8.850;2024-01-10T05:55:09;-4.90;58.40
38606;DHT22;24365;48.446;8.850;2024-01-10T06:00:10;-4.90;58.40
38606;DHT22;24365;48.446;8.850;2024-01-10T06:05:11;-4.90;58.20
38606;DHT22;24365;48.446;8.850;2024-01-10T06:10:12;-4.90;58.80
38606;DHT22;24365;48.446;8.850;2024-01-10T06:15:13;-5.00;57.80
38606;DHT22;24365;48.446;8.850;2024-01-10T06:20:14;-5.00;57.80
38606;DHT22;24365;48.446;8.850;2024-01-10T06:25:15;-5.10;57.80
38606;DHT22;24365;48.446;8.850;2024-01-10T06:30:16;-5.10;57.60
38606;DHT22;24365;48.446;8.850;2024-01-10T06:35:17;-5.20;57.70
38606;DHT22;24365;48.446;8.850;2024-01-10T06:40:18;-5.20;57.80
38606;DHT22;24365;48.446;8.850;2024-01-10T06:45:18;-5.20;57.80
38606;DHT22;24365;48.446;8.850;2024-01-10T06:50:20;-5.30;57.90
38606;DHT22;24365;48.446;8.850;2024-01-10T06:55:22;-5.30;57.80
38606;DHT22;24365;48.446;8.850;2024-01-10T07:00:24;-5.40;57.60
38606;DHT22;24365;48.446;8.850;2024-01-10T07:05:27;-5.40;57.80
38606;DHT22;24365;48.446;8.850;2024-01-10T07:10:29;-5.40;57.80
38606;DHT22;24365;48.446;8.850;2024-01-10T07:15:30;-5.40;57.60
38606;DHT22;24365;48.446;8.850;2024-01-10T07:20:30;-5.50;57.70
38606;DHT22;24365;48.446;8.850;2024-01-10T07:25:31;-5.50;57.70
38606;DHT22;24365;48.446;8.850;2024-01-10T07:30:33;-5.50;57.60
38606;DHT22;24365;48.446;8.850;2024-01-10T07:35:33;-5.50;57.80
38606;DHT22;24365;48.446;8.850;2024-01-10T07:40:34;-5.50;57.80
38606;DHT22;24365;48.446;8.850;2024-01-10T07:45:35;-5.50;57.80
38606;DHT22;24365;48.446;8.850;2024-01-10T07:50:36;-5.50;57.80
38606;DHT22;24365;48.446;8.850;2024-01-10T07:55:37;-5.60;57.70
38606;DHT22;24365;48.446;8.850;2024-01-10T08:00:38;-5.50;57.80
38606;DHT22;24365;48.446;8.850;2024-01-10T08:05:39;-5.50;57.70
38606;DHT22;24365;48.446;8.850;2024-01-10T08:10:40;-5.50;57.80
38606;DHT22;24365;48.446;8.850;2024-01-10T08:15:41;-5.50;57.70
38606;DHT22;24365;48.446;8.850;2024-01-10T08:20:42;-5.50;57.80
38606;DHT22;24365;48.446;8.850;2024-01-10T08:25:43;-5.50;58.10
38606;DHT22;24365;48.446;8.850;2024-01-10T08:30:44;-5.50;58.20
38606;DHT22;24365;48.446;8.850;2024-01-10T08:35:46;-5.40;58.40
38606;DHT22;24365;48.446;8.850;2024-01-10T08:40:46;-5.40;58.40
38606;DHT22;24365;48.446;8.850;2024-01-10T08:45:48;-5.30;58.70
38606;DHT22;24365;48.446;8.850;2024-01-10T08:50:50;-5.30;59.00
38606;DHT22;24365;48.446;8.850;2024-01-10T08:55:50;-5.20;59.10
38606;DHT22;24365;48.446;8.850;2024-01-10T09:00:51;-5.20;59.60
38606;DHT22;24365;48.446;8.850;2024-01-10T09:05:52;-5.10;59.80
38606;DHT22;24365;48.446;8.850;2024-01-10T09:10:53;-5.00;59.30
38606;DHT22;24365;48.446;8.850;2024-01-10T09:15:54;-4.80;59.40
38606;DHT22;24365;48.446;8.850;2024-01-10T09:20:55;-4.80;58.80
38606;DHT22;24365;48.446;8.850;2024-01-10T09:25:56;-4.70;59.00
38606;DHT22;24365;48.446;8.850;2024-01-10T09:30:57;-4.70;59.30
38606;DHT22;24365;48.446;8.850;2024-01-10T09:35:58;-4.80;59.50
38606;DHT22;24365;48.446;8.850;2024-01-10T09:40:59;-4.70;60.00
38606;DHT22;24365;48.446;8.850;2024-01-10T09:46:02;-4.60;59.80
38606;DHT22;24365;48.446;8.850;2024-01-10T09:51:03;-4.60;59.90
38606;DHT22;24365;48.446;8.850;2024-01-10T09:56:04;-4.60;59.70
38606;DHT22;24365;48.446;8.850;2024-01-10T10:01:05;-4.60;60.10
38606;DHT22;24365;48.446;8.850;2024-01-10T10:06:07;-4.60;61.20
38606;DHT22;24365;48.446;8.850;2024-01-10T10:11:12;-4.50;60.40
38606;DHT22;24365;48.446;8.850;2024-01-10T10:16:14;-4.50;60.10
38606;DHT22;24365;48.446;8.850;2024-01-10T10:21:26;-4.40;60.10
38606;DHT22;24365;48.446;8.850;2024-01-10T10:26:27;-4.40;61.30
38606;DHT22;24365;48.446;8.850;2024-01-10T10:31:29;-4.30;61.40
38606;DHT22;24365;48.446;8.850;2024-01-10T10:36:31;-4.20;61.60
38606;DHT22;24365;48.446;8.850;2024-01-10T10:41:32;-4.00;61.50
38606;DHT22;24365;48.446;8.850;2024-01-10T10:46:33;-3.80;61.80
38606;DHT22;24365;48.446;8.850;2024-01-10T10:51:35;-3.70;61.40
38606;DHT22;24365;48.446;8.850;2024-01-10T10:56:37;-3.50;60.60
38606;DHT22;24365;48.446;8.850;2024-01-10T11:01:39;-3.30;61.10
38606;DHT22;24365;48.446;8.850;2024-01-10T11:06:41;-3.20;60.20
38606;DHT22;24365;48.446;8.850;2024-01-10T11:22:32;-3.10;60.70
38606;DHT22;24365;48.446;8.850;2024-01-10T11:27:38;-3.10;60.50
38606;DHT22;24365;48.446;8.850;2024-01-10T11:32:39;-2.90;60.40
38606;DHT22;24365;48.446;8.850;2024-01-10T11:37:43;-2.90;59.30
38606;DHT22;24365;48.446;8.850;2024-01-10T11:42:45;-2.80;59.70
38606;DHT22;24365;48.446;8.850;2024-01-10T11:47:49;-2.70;59.30
38606;DHT22;24365;48.446;8.850;2024-01-10T11:52:54;-2.60;59.70
38606;DHT22;24365;48.446;8.850;2024-01-10T11:58:16;-2.50;59.60
38606;DHT22;24365;48.446;8.850;2024-01-10T12:03:16;-2.40;59.80
38606;DHT22;24365;48.446;8.850;2024-01-10T12:08:19;-2.40;59.70
38606;DHT22;24365;48.446;8.850;2024-01-10T12:13:23;-2.30;60.00
38606;DHT22;24365;48.446;8.850;2024-01-10T12:18:31;-2.20;59.80
38606;DHT22;24365;48.446;8.850;2024-01-10T12:23:32;-2.10;59.60
38606;DHT22;24365;48.446;8.850;2024-01-10T12:28:36;-2.10;59.40
38606;DHT22;24365;48.446;8.850;2024-01-10T12:33:37;-2.00;59.80
38606;DHT22;24365;48.446;8.850;2024-01-10T12:38:38;-1.90;59.50
38606;DHT22;24365;48.446;8.850;2024-01-10T12:43:39;-1.90;59.00
38606;DHT22;24365;48.446;8.850;2024-01-10T12:48:41;-1.70;59.10
38606;DHT22;24365;48.446;8.850;2024-01-10T12:53:42;-1.60;58.20
38606;DHT22;24365;48.446;8.850;2024-01-10T12:58:44;-1.60;58.50
38606;DHT22;24365;48.446;8.850;2024-01-10T13:03:44;-1.40;58.50
38606;DHT22;24365;48.446;8.850;2024-01-10T13:08:45;-1.30;58.20
38606;DHT22;24365;48.446;8.850;2024-01-10T13:13:46;-1.40;57.60
38606;DHT22;24365;48.446;8.850;2024-01-10T13:18:47;-1.40;57.90
38606;DHT22;24365;48.446;8.850;2024-01-10T13:23:48;-1.30;57.40
38606;DHT22;24365;48.446;8.850;2024-01-10T13:28:49;-1.50;57.90
38606;DHT22;24365;48.446;8.850;2024-01-10T13:33:51;-1.50;58.20
38606;DHT22;24365;48.446;8.850;2024-01-10T13:38:52;-1.50;58.90
38606;DHT22;24365;48.446;8.850;2024-01-10T13:43:53;-1.40;58.50
38606;DHT22;24365;48.446;8.850;2024-01-10T13:48:54;-1.30;57.40
38606;DHT22;24365;48.446;8.850;2024-01-10T13:53:55;-1.30;57.70
38606;DHT22;24365;48.446;8.850;2024-01-10T13:58:56;-1.30;57.80
38606;DHT22;24365;48.446;8.850;2024-01-10T14:03:58;-1.30;58.00
38606;DHT22;24365;48.446;8.850;2024-01-10T14:08:58;-1.40;58.20
38606;DHT22;24365;48.446;8.850;2024-01-10T14:13:59;-1.40;58.50
38606;DHT22;24365;48.446;8.850;2024-01-10T14:19:00;-1.50;59.00
38606;DHT22;24365;48.446;8.850;2024-01-10T14:24:02;-1.50;59.30
38606;DHT22;24365;48.446;8.850;2024-01-10T14:29:03;-1.50;59.50
38606;DHT22;24365;48.446;8.850;2024-01-10T14:34:03;-1.60;59.80
38606;DHT22;24365;48.446;8.850;2024-01-10T14:39:04;-1.60;60.30
38606;DHT22;24365;48.446;8.850;2024-01-10T14:44:08;-1.60;61.00
38606;DHT22;24365;48.446;8.850;2024-01-10T14:49:09;-1.70;61.10
38606;DHT22;24365;48.446;8.850;2024-01-10T14:54:10;-1.70;61.60
38606;DHT22;24365;48.446;8.850;2024-01-10T14:59:11;-1.70;62.00
38606;DHT22;24365;48.446;8.850;2024-01-10T15:04:12;-1.80;62.10
38606;DHT22;24365;48.446;8.850;2024-01-10T15:09:13;-1.90;62.30
38606;DHT22;24365;48.446;8.850;2024-01-10T15:14:15;-2.00;62.70
38606;DHT22;24365;48.446;8.850;2024-01-10T15:19:15;-2.10;63.20
38606;DHT22;24365;48.446;8.850;2024-01-10T15:24:16;-2.10;63.20
38606;DHT22;24365;48.446;8.850;2024-01-10T15:29:17;-2.10;62.40
38606;DHT22;24365;48.446;8.850;2024-01-10T15:34:18;-2.20;62.00
38606;DHT22;24365;48.446;8.850;2024-01-10T15:39:19;-2.40;62.40
38606;DHT22;24365;48.446;8.850;2024-01-10T15:44:24;-2.40;62.30
38606;DHT22;24365;48.446;8.850;2024-01-10T15:49:25;-2.40;61.80
38606;DHT22;24365;48.446;8.850;2024-01-10T15:54:26;-2.50;61.80
38606;DHT22;24365;48.446;8.850;2024-01-10T15:59:27;-2.60;61.80
38606;DHT22;24365;48.446;8.850;2024-01-10T16:04:28;-2.70;61.90
38606;DHT22;24365;48.446;8.850;2024-01-10T16:09:29;-2.70;61.70
38606;DHT22;24365;48.446;8.850;2024-01-10T16:14:30;-2.80;61.50
38606;DHT22;24365;48.446;8.850;2024-01-10T16:19:32;-2.80;61.90
38606;DHT22;24365;48.446;8.850;2024-01-10T16:24:33;-2.90;62.00
38606;DHT22;24365;48.446;8.850;2024-01-10T16:29:34;-2.90;61.70
38606;DHT22;24365;48.446;8.850;2024-01-10T16:34:35;-3.00;62.10
38606;DHT22;24365;48.446;8.850;2024-01-10T16:39:36;-3.10;62.00
38606;DHT22;24365;48.446;8.850;2024-01-10T16:44:36;-3.10;62.10
38606;DHT22;24365;48.446;8.850;2024-01-10T16:49:38;-3.10;62.30
38606;DHT22;24365;48.446;8.850;2024-01-10T16:54:39;-3.10;61.60
38606;DHT22;24365;48.446;8.850;2024-01-10T16:59:40;-3.20;62.80
38606;DHT22;24365;48.446;8.850;2024-01-10T17:04:41;-3.30;62.50
38606;DHT22;24365;48.446;8.850;2024-01-10T17:09:43;-3.20;62.10
38606;DHT22;24365;48.446;8.850;2024-01-10T17:14:45;-3.20;62.00
38606;DHT22;24365;48.446;8.850;2024-01-10T17:19:46;-3.30;61.90
38606;DHT22;24365;48.446;8.850;2024-01-10T17:24:46;-3.30;62.30
38606;DHT22;24365;48.446;8.850;2024-01-10T17:29:48;-3.30;61.90
38606;DHT22;24365;48.446;8.850;2024-01-10T17:34:49;-3.40;62.00
38606;DHT22;24365;48.446;8.850;2024-01-10T17:39:50;-3.40;62.00
38606;DHT22;24365;48.446;8.850;2024-01-10T17:44:51;-3.50;62.20
38606;DHT22;24365;48.446;8.850;2024-01-10T17:49:52;-3.50;62.20
38606;DHT22;24365;48.446;8.850;2024-01-10T17:54:53;-3.60;62.20
38606;DHT22;24365;48.446;8.850;2024-01-10T17:59:54;-3.60;62.10
38606;DHT22;24365;48.446;8.850;2024-01-10T18:04:55;-3.70;62.00
38606;DHT22;24365;48.446;8.850;2024-01-10T18:09:56;-3.70;62.10
38606;DHT22;24365;48.446;8.850;2024-01-10T18:14:57;-3.70;62.20
38606;DHT22;24365;48.446;8.850;2024-01-10T18:19:58;-3.70;62.10
38606;DHT22;24365;48.446;8.850;2024-01-10T18:24:59;-3.80;61.90
38606;DHT22;24365;48.446;8.850;2024-01-10T18:29:59;-3.70;61.90
38606;DHT22;24365;48.446;8.850;2024-01-10T18:35:01;-3.90;61.90
38606;DHT22;24365;48.446;8.850;2024-01-10T18:40:01;-3.80;62.00
38606;DHT22;24365;48.446;8.850;2024-01-10T18:45:03;-3.90;62.20
38606;DHT22;24365;48.446;8.850;2024-01-10T18:50:04;-3.90;61.80
38606;DHT22;24365;48.446;8.850;2024-01-10T18:55:05;-3.90;62.20
38606;DHT22;24365;48.446;8.850;2024-01-10T19:00:06;-4.00;62.00
38606;DHT22;24365;48.446;8.850;2024-01-10T19:05:10;-4.00;62.10
38606;DHT22;24365;48.446;8.850;2024-01-10T19:10:13;-4.00;61.80
38606;DHT22;24365;48.446;8.850;2024-01-10T19:15:14;-4.00;61.90
38606;DHT22;24365;48.446;8.850;2024-01-10T19:20:15;-4.00;61.50
38606;DHT22;24365;48.446;8.850;2024-01-10T19:25:16;-4.10;61.60
38606;DHT22;24365;48.446;8.850;2024-01-10T19:30:17;-4.10;61.60
38606;DHT22;24365;48.446;8.850;2024-01-10T19:35:21;-4.20;61.70
38606;DHT22;24365;48.446;8.850;2024-01-10T19:40:22;-4.20;61.70
38606;DHT22;24365;48.446;8.850;2024-01-10T19:45:23;-4.20;61.80
38606;DHT22;24365;48.446;8.850;2024-01-10T19:50:24;-4.30;61.80
38606;DHT22;24365;48.446;8.850;2024-01-10T19:55:25;-4.30;61.70
38606;DHT22;24365;48.446;8.850;2024-01-10T20:00:26;-4.40;61.60
38606;DHT22;24365;48.446;8.850;2024-01-10T20:05:26;-4.40;61.70
38606;DHT22;24365;48.446;8.850;2024-01-10T20:10:27;-4.40;61.70
38606;DHT22;24365;48.446;8.850;2024-01-10T20:15:29;-4.40;61.70
38606;DHT22;24365;48.446;8.850;2024-01-10T20:20:30;-4.50;61.70
38606;DHT22;24365;48.446;8.850;2024-01-10T20:25:31;-4.50;61.80
38606;DHT22;24365;48.446;8.850;2024-01-10T20:30:32;-4.50;62.00
38606;DHT22;24365;48.446;8.850;2024-01-10T20:35:33;-4.60;61.80
38606;DHT22;24365;48.446;8.850;2024-01-10T20:40:34;-4.60;61.40
38606;DHT22;24365;48.446;8.850;2024-01-10T20:45:35;-4.60;61.60
38606;DHT22;24365;48.446;8.850;2024-01-10T20:50:36;-4.60;61.70
38606;DHT22;24365;48.446;8.850;2024-01-10T20:55:41;-4.70;61.70
38606;DHT22;24365;48.446;8.850;2024-01-10T21:00:42;-4.70;61.60
38606;DHT22;24365;48.446;8.850;2024-01-10T21:05:44;-4.70;61.60
38606;DHT22;24365;48.446;8.850;2024-01-10T21:10:47;-4.70;61.80
38606;DHT22;24365;48.446;8.850;2024-01-10T21:15:48;-4.80;61.60
38606;DHT22;24365;48.446;8.850;2024-01-10T21:20:49;-4.80;61.60
38606;DHT22;24365;48.446;8.850;2024-01-10T21:25:50;-4.80;61.60
38606;DHT22;24365;48.446;8.850;2024-01-10T21:30:51;-4.90;61.60
38606;DHT22;24365;48.446;8.850;2024-01-10T21:35:52;-4.90;61.60
38606;DHT22;24365;48.446;8.850;2024-01-10T21:40:53;-5.00;61.40
38606;DHT22;24365;48.446;8.850;2024-01-10T21:45:54;-5.00;62.10
38606;DHT22;24365;48.446;8.850;2024-01-10T21:50:54;-5.10;62.80
38606;DHT22;24365;48.446;8.850;2024-01-10T21:55:55;-5.20;62.80
38606;DHT22;24365;48.446;8.850;2024-01-10T22:00:56;-5.10;63.30
38606;DHT22;24365;48.446;8.850;2024-01-10T22:05:57;-5.10;63.20
38606;DHT22;24365;48.446;8.850;2024-01-10T22:10:58;-5.00;62.90
38606;DHT22;24365;48.446;8.850;2024-01-10T22:15:59;-5.10;62.70
38606;DHT22;24365;48.446;8.850;2024-01-10T22:21:00;-5.10;63.30
38606;DHT22;24365;48.446;8.850;2024-01-10T22:26:00;-5.10;62.40
38606;DHT22;24365;48.446;8.850;2024-01-10T22:31:01;-5.10;62.10
38606;DHT22;24365;48.446;8.850;2024-01-10T22:36:02;-5.20;62.80
38606;DHT22;24365;48.446;8.850;2024-01-10T22:41:03;-5.30;62.60
38606;DHT22;24365;48.446;8.850;2024-01-10T22:46:04;-5.20;62.40
38606;DHT22;24365;48.446;8.850;2024-01-10T22:51:05;-5.20;62.10
38606;DHT22;24365;48.446;8.850;2024-01-10T22:56:06;-5.20;61.70
38606;DHT22;24365;48.446;8.850;2024-01-10T23:01:07;-5.30;61.70
38606;DHT22;24365;48.446;8.850;2024-01-10T23:06:08;-5.30;61.80
38606;DHT22;24365;48.446;8.850;2024-01-10T23:11:09;-5.40;61.60
38606;DHT22;24365;48.446;8.850;2024-01-10T23:16:10;-5.40;61.70
38606;DHT22;24365;48.446;8.850;2024-01-10T23:21:11;-5.40;61.40
38606;DHT22;24365;48.446;8.850;2024-01-10T23:26:12;-5.40;61.40
38606;DHT22;24365;48.446;8.850;2024-01-10T23:31:13;-5.50;61.20
38606;DHT22;24365;48.446;8.850;2024-01-10T23:36:14;-5.50;61.30
38606;DHT22;24365;48.446;8.850;2024-01-10T23:41:15;-5.50;61.40
38606;DHT22;24365;48.446;8.850;2024-01-10T23:46:16;-5.50;61.30
38606;DHT22;24365;48.446;8.850;2024-01-10T23:51:17;-5.60;61.00
38606;DHT22;24365;48.446;8.850;2024-01-10T23:56:18;-5.50;61.30
